Aviation Digital Data Service (ADDS)

Output produced by METARs form (1152 UTC 18 June 2019)
found at http://www.aviationweather.gov/metar/data/
 
METAR text: DRRN 181100Z 23012KT 200V270 9999 FEW030 36/19 Q1014 NOSIG
Conditions at: DRRN (NIAMEY (CIV/MIL), NE) observed 1100 UTC 18 June 2019
Temperature: 36.0°C (97°F)
Dewpoint: 19.0°C (66°F) [RH = 37%]
Pressure (altimeter): 29.94 inches Hg (1014.0 mb)
Winds: from the SW (230 degrees) at 14 MPH (12 knots; 6.2 m/s)
Visibility: 6 or more miles (10+ km)
Ceiling: at least 12,000 feet AGL
Clouds: few clouds at 3000 feet AGL
Weather: no significant weather observed at this time

METAR text: DRRN 181000Z 22010KT 190V260 9999 FEW030 35/20 Q1015 NOSIG
Conditions at: DRRN (NIAMEY (CIV/MIL), NE) observed 1000 UTC 18 June 2019
Temperature: 35.0°C (95°F)
Dewpoint: 20.0°C (68°F) [RH = 42%]
Pressure (altimeter): 29.97 inches Hg (1015.0 mb)
Winds: from the SW (220 degrees) at 12 MPH (10 knots; 5.1 m/s)
Visibility: 6 or more miles (10+ km)
Ceiling: at least 12,000 feet AGL
Clouds: few clouds at 3000 feet AGL
Weather: no significant weather observed at this time

METAR text: DRRN 180900Z 21012G22KT 170V230 8000 NSC 33/20 Q1015 NOSIG
Conditions at: DRRN (NIAMEY (CIV/MIL), NE) observed 0900 UTC 18 June 2019
Temperature: 33.0°C (91°F)
Dewpoint: 20.0°C (68°F) [RH = 46%]
Pressure (altimeter): 29.97 inches Hg (1015.0 mb)
Winds: from the SSW (210 degrees) at 14 MPH (12 knots; 6.2 m/s)
gusting to 25 MPH (22 knots; 11.3 m/s)
Visibility: 5 miles ( 8 km)
Ceiling: at least 12,000 feet AGL
Clouds: sky clear below 12,000 feet AGL
Weather: no significant weather observed at this time

METAR text: DRRN 180800Z 23012KT 8000 NSC 32/21 Q1014 NOSIG
Conditions at: DRRN (NIAMEY (CIV/MIL), NE) observed 0800 UTC 18 June 2019
Temperature: 32.0°C (90°F)
Dewpoint: 21.0°C (70°F) [RH = 52%]
Pressure (altimeter): 29.94 inches Hg (1014.0 mb)
Winds: from the SW (230 degrees) at 14 MPH (12 knots; 6.2 m/s)
Visibility: 5 miles ( 8 km)
Ceiling: at least 12,000 feet AGL
Clouds: sky clear below 12,000 feet AGL
Weather: no significant weather observed at this time

METAR text: DRRN 180700Z 21012KT 9999 FEW033 30/21 Q1014 NOSIG
Conditions at: DRRN (NIAMEY (CIV/MIL), NE) observed 0700 UTC 18 June 2019
Temperature: 30.0°C (86°F)
Dewpoint: 21.0°C (70°F) [RH = 59%]
Pressure (altimeter): 29.94 inches Hg (1014.0 mb)
Winds: from the SSW (210 degrees) at 14 MPH (12 knots; 6.2 m/s)
Visibility: 6 or more miles (10+ km)
Ceiling: at least 12,000 feet AGL
Clouds: few clouds at 3300 feet AGL
Weather: no significant weather observed at this time

METAR text: DRRN 180600Z 22008KT CAVOK 30/21 Q1013 NOSIG
Conditions at: DRRN (NIAMEY (CIV/MIL), NE) observed 0600 UTC 18 June 2019
Temperature: 30.0°C (86°F)
Dewpoint: 21.0°C (70°F) [RH = 59%]
Pressure (altimeter): 29.91 inches Hg (1013.0 mb)
Winds: from the SW (220 degrees) at 9 MPH (8 knots; 4.1 m/s)
Visibility: 6 or more miles (10+ km)
Ceiling: ceiling and visibility are OK
Clouds: unknown
Weather: no significant weather observed at this time

METAR text: DRRN 180500Z 21007KT CAVOK 30/20 Q1012 NOSIG
Conditions at: DRRN (NIAMEY (CIV/MIL), NE) observed 0500 UTC 18 June 2019
Temperature: 30.0°C (86°F)
Dewpoint: 20.0°C (68°F) [RH = 55%]
Pressure (altimeter): 29.88 inches Hg (1012.0 mb)
Winds: from the SSW (210 degrees) at 8 MPH (7 knots; 3.6 m/s)
Visibility: 6 or more miles (10+ km)
Ceiling: ceiling and visibility are OK
Clouds: unknown
Weather: no significant weather observed at this time

METAR text: DRRN 180400Z 22010KT CAVOK 30/20 Q1012 NOSIG
Conditions at: DRRN (NIAMEY (CIV/MIL), NE) observed 0400 UTC 18 June 2019
Temperature: 30.0°C (86°F)
Dewpoint: 20.0°C (68°F) [RH = 55%]
Pressure (altimeter): 29.88 inches Hg (1012.0 mb)
Winds: from the SW (220 degrees) at 12 MPH (10 knots; 5.1 m/s)
Visibility: 6 or more miles (10+ km)
Ceiling: ceiling and visibility are OK
Clouds: unknown
Weather: no significant weather observed at this time

METAR text: DRRN 180300Z 22010KT CAVOK 31/20 Q1012 NOSIG
Conditions at: DRRN (NIAMEY (CIV/MIL), NE) observed 0300 UTC 18 June 2019
Temperature: 31.0°C (88°F)
Dewpoint: 20.0°C (68°F) [RH = 52%]
Pressure (altimeter): 29.88 inches Hg (1012.0 mb)
Winds: from the SW (220 degrees) at 12 MPH (10 knots; 5.1 m/s)
Visibility: 6 or more miles (10+ km)
Ceiling: ceiling and visibility are OK
Clouds: unknown
Weather: no significant weather observed at this time

METAR text: DRRN 180200Z 22011KT CAVOK 31/21 Q1012 NOSIG
Conditions at: DRRN (NIAMEY (CIV/MIL), NE) observed 0200 UTC 18 June 2019
Temperature: 31.0°C (88°F)
Dewpoint: 21.0°C (70°F) [RH = 55%]
Pressure (altimeter): 29.88 inches Hg (1012.0 mb)
Winds: from the SW (220 degrees) at 13 MPH (11 knots; 5.7 m/s)
Visibility: 6 or more miles (10+ km)
Ceiling: ceiling and visibility are OK
Clouds: unknown
Weather: no significant weather observed at this time

METAR text: DRRN 180100Z 22009KT CAVOK 32/20 Q1012 NOSIG
Conditions at: DRRN (NIAMEY (CIV/MIL), NE) observed 0100 UTC 18 June 2019
Temperature: 32.0°C (90°F)
Dewpoint: 20.0°C (68°F) [RH = 49%]
Pressure (altimeter): 29.88 inches Hg (1012.0 mb)
Winds: from the SW (220 degrees) at 10 MPH (9 knots; 4.6 m/s)
Visibility: 6 or more miles (10+ km)
Ceiling: ceiling and visibility are OK
Clouds: unknown
Weather: no significant weather observed at this time

METAR text: DRRN 180000Z 22008KT CAVOK 33/19 Q1013 NOSIG
Conditions at: DRRN (NIAMEY (CIV/MIL), NE) observed 0000 UTC 18 June 2019
Temperature: 33.0°C (91°F)
Dewpoint: 19.0°C (66°F) [RH = 44%]
Pressure (altimeter): 29.91 inches Hg (1013.0 mb)
Winds: from the SW (220 degrees) at 9 MPH (8 knots; 4.1 m/s)
Visibility: 6 or more miles (10+ km)
Ceiling: ceiling and visibility are OK
Clouds: unknown
Weather: no significant weather observed at this time

METAR text: DRRN 172200Z 21007KT 7000 NSC 35/17 Q1013 NOSIG
Conditions at: DRRN (NIAMEY (CIV/MIL), NE) observed 2200 UTC 17 June 2019
Temperature: 35.0°C (95°F)
Dewpoint: 17.0°C (63°F) [RH = 34%]
Pressure (altimeter): 29.91 inches Hg (1013.0 mb)
Winds: from the SSW (210 degrees) at 8 MPH (7 knots; 3.6 m/s)
Visibility: 4 miles ( 7 km)
Ceiling: at least 12,000 feet AGL
Clouds: sky clear below 12,000 feet AGL
Weather: no significant weather observed at this time

METAR text: DRRN 172100Z 18004KT 7000 NSC 37/13 Q1012 NOSIG
Conditions at: DRRN (NIAMEY (CIV/MIL), NE) observed 2100 UTC 17 June 2019
Temperature: 37.0°C (99°F)
Dewpoint: 13.0°C (55°F) [RH = 24%]
Pressure (altimeter): 29.88 inches Hg (1012.0 mb)
Winds: from the S (180 degrees) at 5 MPH (4 knots; 2.1 m/s)
Visibility: 4 miles ( 7 km)
Ceiling: at least 12,000 feet AGL
Clouds: sky clear below 12,000 feet AGL
Weather: no significant weather observed at this time

METAR text: DRRN 172000Z VRB02KT 7000 NSC 38/12 Q1011 TEMPO 4500 DU
Conditions at: DRRN (NIAMEY (CIV/MIL), NE) observed 2000 UTC 17 June 2019
Temperature: 38.0°C (100°F)
Dewpoint: 12.0°C (54°F) [RH = 21%]
Pressure (altimeter): 29.85 inches Hg (1011.0 mb)
Winds: variable direction winds at 2 MPH (2 knots; 1.0 m/s)
Visibility: 4 miles ( 7 km)
Ceiling: at least 12,000 feet AGL
Clouds: sky clear below 12,000 feet AGL
Weather: no significant weather observed at this time

METAR text: DRRN 171900Z 18003KT 7000 NSC 39/12 Q1010 TEMPO 4500 DU
Conditions at: DRRN (NIAMEY (CIV/MIL), NE) observed 1900 UTC 17 June 2019
Temperature: 39.0°C (102°F)
Dewpoint: 12.0°C (54°F) [RH = 20%]
Pressure (altimeter): 29.82 inches Hg (1010.0 mb)
Winds: from the S (180 degrees) at 3 MPH (3 knots; 1.5 m/s)
Visibility: 4 miles ( 7 km)
Ceiling: at least 12,000 feet AGL
Clouds: sky clear below 12,000 feet AGL
Weather: no significant weather observed at this time

METAR text: DRRN 171800Z VRB02KT 9999 FEW040 40/11 Q1010 NOSIG
Conditions at: DRRN (NIAMEY (CIV/MIL), NE) observed 1800 UTC 17 June 2019
Temperature: 40.0°C (104°F)
Dewpoint: 11.0°C (52°F) [RH = 18%]
Pressure (altimeter): 29.82 inches Hg (1010.0 mb)
Winds: variable direction winds at 2 MPH (2 knots; 1.0 m/s)
Visibility: 6 or more miles (10+ km)
Ceiling: at least 12,000 feet AGL
Clouds: few clouds at 4000 feet AGL
Weather: no significant weather observed at this time

METAR text: DRRN 171700Z 04005KT 330V070 9999 FEW040 41/10 Q1010 NOSIG
Conditions at: DRRN (NIAMEY (CIV/MIL), NE) observed 1700 UTC 17 June 2019
Temperature: 41.0°C (106°F)
Dewpoint: 10.0°C (50°F) [RH = 16%]
Pressure (altimeter): 29.82 inches Hg (1010.0 mb)
Winds: from the NE (40 degrees) at 6 MPH (5 knots; 2.6 m/s)
Visibility: 6 or more miles (10+ km)
Ceiling: at least 12,000 feet AGL
Clouds: few clouds at 4000 feet AGL
Weather: no significant weather observed at this time

METAR text: DRRN 171600Z 26004KT 180V330 CAVOK 41/12 Q1010 NOSIG
Conditions at: DRRN (NIAMEY (CIV/MIL), NE) observed 1600 UTC 17 June 2019
Temperature: 41.0°C (106°F)
Dewpoint: 12.0°C (54°F) [RH = 18%]
Pressure (altimeter): 29.82 inches Hg (1010.0 mb)
Winds: from the W (260 degrees) at 5 MPH (4 knots; 2.1 m/s)
Visibility: 6 or more miles (10+ km)
Ceiling: ceiling and visibility are OK
Clouds: unknown
Weather: no significant weather observed at this time

METAR text: DRRN 171500Z 26004KT 190V330 9999 FEW040 40/12 Q1010 NOSIG
Conditions at: DRRN (NIAMEY (CIV/MIL), NE) observed 1500 UTC 17 June 2019
Temperature: 40.0°C (104°F)
Dewpoint: 12.0°C (54°F) [RH = 19%]
Pressure (altimeter): 29.82 inches Hg (1010.0 mb)
Winds: from the W (260 degrees) at 5 MPH (4 knots; 2.1 m/s)
Visibility: 6 or more miles (10+ km)
Ceiling: at least 12,000 feet AGL
Clouds: few clouds at 4000 feet AGL
Weather: no significant weather observed at this time

METAR text: DRRN 171400Z VRB05KT CAVOK 40/13 Q1011 NOSIG
Conditions at: DRRN (NIAMEY (CIV/MIL), NE) observed 1400 UTC 17 June 2019
Temperature: 40.0°C (104°F)
Dewpoint: 13.0°C (55°F) [RH = 20%]
Pressure (altimeter): 29.85 inches Hg (1011.0 mb)
Winds: variable direction winds at 6 MPH (5 knots; 2.6 m/s)
Visibility: 6 or more miles (10+ km)
Ceiling: ceiling and visibility are OK
Clouds: unknown
Weather: no significant weather observed at this time

METAR text: DRRN 171300Z 26007KT 210V330 CAVOK 39/13 Q1011 NOSIG
Conditions at: DRRN (NIAMEY (CIV/MIL), NE) observed 1300 UTC 17 June 2019
Temperature: 39.0°C (102°F)
Dewpoint: 13.0°C (55°F) [RH = 21%]
Pressure (altimeter): 29.85 inches Hg (1011.0 mb)
Winds: from the W (260 degrees) at 8 MPH (7 knots; 3.6 m/s)
Visibility: 6 or more miles (10+ km)
Ceiling: ceiling and visibility are OK
Clouds: unknown
Weather: no significant weather observed at this time

METAR text: DRRN 171200Z 28007KT 240V360 CAVOK 38/13 Q1013 NOSIG
Conditions at: DRRN (NIAMEY (CIV/MIL), NE) observed 1200 UTC 17 June 2019
Temperature: 38.0°C (100°F)
Dewpoint: 13.0°C (55°F) [RH = 23%]
Pressure (altimeter): 29.91 inches Hg (1013.0 mb)
Winds: from the W (280 degrees) at 8 MPH (7 knots; 3.6 m/s)
Visibility: 6 or more miles (10+ km)
Ceiling: ceiling and visibility are OK
Clouds: unknown
Weather: no significant weather observed at this time

METAR text: DRRN 171100Z 21006KT 160V240 CAVOK 36/13 Q1013 NOSIG
Conditions at: DRRN (NIAMEY (CIV/MIL), NE) observed 1100 UTC 17 June 2019
Temperature: 36.0°C (97°F)
Dewpoint: 13.0°C (55°F) [RH = 25%]
Pressure (altimeter): 29.91 inches Hg (1013.0 mb)
Winds: from the SSW (210 degrees) at 7 MPH (6 knots; 3.1 m/s)
Visibility: 6 or more miles (10+ km)
Ceiling: ceiling and visibility are OK
Clouds: unknown
Weather: no significant weather observed at this time

METAR text: DRRN 171000Z 24006KT 180V280 CAVOK 35/14 Q1014 NOSIG
Conditions at: DRRN (NIAMEY (CIV/MIL), NE) observed 1000 UTC 17 June 2019
Temperature: 35.0°C (95°F)
Dewpoint: 14.0°C (57°F) [RH = 28%]
Pressure (altimeter): 29.94 inches Hg (1014.0 mb)
Winds: from the WSW (240 degrees) at 7 MPH (6 knots; 3.1 m/s)
Visibility: 6 or more miles (10+ km)
Ceiling: ceiling and visibility are OK
Clouds: unknown
Weather: no significant weather observed at this time

METAR text: DRRN 170900Z 22007KT 190V260 CAVOK 32/15 Q1014 NOSIG
Conditions at: DRRN (NIAMEY (CIV/MIL), NE) observed 0900 UTC 17 June 2019
Temperature: 32.0°C (90°F)
Dewpoint: 15.0°C (59°F) [RH = 36%]
Pressure (altimeter): 29.94 inches Hg (1014.0 mb)
Winds: from the SW (220 degrees) at 8 MPH (7 knots; 3.6 m/s)
Visibility: 6 or more miles (10+ km)
Ceiling: ceiling and visibility are OK
Clouds: unknown
Weather: no significant weather observed at this time

METAR text: DRRN 170800Z 22009KT CAVOK 30/16 Q1014 NOSIG
Conditions at: DRRN (NIAMEY (CIV/MIL), NE) observed 0800 UTC 17 June 2019
Temperature: 30.0°C (86°F)
Dewpoint: 16.0°C (61°F) [RH = 43%]
Pressure (altimeter): 29.94 inches Hg (1014.0 mb)
Winds: from the SW (220 degrees) at 10 MPH (9 knots; 4.6 m/s)
Visibility: 6 or more miles (10+ km)
Ceiling: ceiling and visibility are OK
Clouds: unknown
Weather: no significant weather observed at this time

METAR text: DRRN 170700Z 21010KT CAVOK 29/17 Q1013 NOSIG
Conditions at: DRRN (NIAMEY (CIV/MIL), NE) observed 0700 UTC 17 June 2019
Temperature: 29.0°C (84°F)
Dewpoint: 17.0°C (63°F) [RH = 48%]
Pressure (altimeter): 29.91 inches Hg (1013.0 mb)
Winds: from the SSW (210 degrees) at 12 MPH (10 knots; 5.1 m/s)
Visibility: 6 or more miles (10+ km)
Ceiling: ceiling and visibility are OK
Clouds: unknown
Weather: no significant weather observed at this time

METAR text: DRRN 170600Z 21008KT CAVOK 28/17 Q1012 NOSIG
Conditions at: DRRN (NIAMEY (CIV/MIL), NE) observed 0600 UTC 17 June 2019
Temperature: 28.0°C (82°F)
Dewpoint: 17.0°C (63°F) [RH = 51%]
Pressure (altimeter): 29.88 inches Hg (1012.0 mb)
Winds: from the SSW (210 degrees) at 9 MPH (8 knots; 4.1 m/s)
Visibility: 6 or more miles (10+ km)
Ceiling: ceiling and visibility are OK
Clouds: unknown
Weather: no significant weather observed at this time

METAR text: DRRN 170500Z 23009KT CAVOK 29/18 Q1012 NOSIG
Conditions at: DRRN (NIAMEY (CIV/MIL), NE) observed 0500 UTC 17 June 2019
Temperature: 29.0°C (84°F)
Dewpoint: 18.0°C (64°F) [RH = 52%]
Pressure (altimeter): 29.88 inches Hg (1012.0 mb)
Winds: from the SW (230 degrees) at 10 MPH (9 knots; 4.6 m/s)
Visibility: 6 or more miles (10+ km)
Ceiling: ceiling and visibility are OK
Clouds: unknown
Weather: no significant weather observed at this time

METAR text: DRRN 170400Z 21010KT 8000 NSC 29/17 Q1012 NOSIG
Conditions at: DRRN (NIAMEY (CIV/MIL), NE) observed 0400 UTC 17 June 2019
Temperature: 29.0°C (84°F)
Dewpoint: 17.0°C (63°F) [RH = 48%]
Pressure (altimeter): 29.88 inches Hg (1012.0 mb)
Winds: from the SSW (210 degrees) at 12 MPH (10 knots; 5.1 m/s)
Visibility: 5 miles ( 8 km)
Ceiling: at least 12,000 feet AGL
Clouds: sky clear below 12,000 feet AGL
Weather: no significant weather observed at this time

METAR text: DRRN 170300Z 19010KT 4000 DU NSC 29/17 Q1012 BECMG 6000
Conditions at: DRRN (NIAMEY (CIV/MIL), NE) observed 0300 UTC 17 June 2019
Temperature: 29.0°C (84°F)
Dewpoint: 17.0°C (63°F) [RH = 48%]
Pressure (altimeter): 29.88 inches Hg (1012.0 mb)
Winds: from the S (190 degrees) at 12 MPH (10 knots; 5.1 m/s)
Visibility: 2.49 miles (4.01 km)
Ceiling: at least 12,000 feet AGL
Clouds: sky clear below 12,000 feet AGL
Weather: DU  (widespread dust)

METAR text: DRRN 170200Z 18017KT 2000 BLDU NSC 31/16 Q1012 TEMPO 1500
Conditions at: DRRN (NIAMEY (CIV/MIL), NE) observed 0200 UTC 17 June 2019
Temperature: 31.0°C (88°F)
Dewpoint: 16.0°C (61°F) [RH = 40%]
Pressure (altimeter): 29.88 inches Hg (1012.0 mb)
Winds: from the S (180 degrees) at 20 MPH (17 knots; 8.7 m/s)
Visibility: 1.24 miles (2.00 km)
Ceiling: at least 12,000 feet AGL
Clouds: sky clear below 12,000 feet AGL
Weather: BLDU  (blowing dust)

METAR text: DRRN 170100Z 22009KT CAVOK 34/19 Q1012 NOSIG
Conditions at: DRRN (NIAMEY (CIV/MIL), NE) observed 0100 UTC 17 June 2019
Temperature: 34.0°C (93°F)
Dewpoint: 19.0°C (66°F) [RH = 41%]
Pressure (altimeter): 29.88 inches Hg (1012.0 mb)
Winds: from the SW (220 degrees) at 10 MPH (9 knots; 4.6 m/s)
Visibility: 6 or more miles (10+ km)
Ceiling: ceiling and visibility are OK
Clouds: unknown
Weather: no significant weather observed at this time

METAR text: DRRN 170000Z 22008KT CAVOK 34/19 Q1012 NOSIG
Conditions at: DRRN (NIAMEY (CIV/MIL), NE) observed 0000 UTC 17 June 2019
Temperature: 34.0°C (93°F)
Dewpoint: 19.0°C (66°F) [RH = 41%]
Pressure (altimeter): 29.88 inches Hg (1012.0 mb)
Winds: from the SW (220 degrees) at 9 MPH (8 knots; 4.1 m/s)
Visibility: 6 or more miles (10+ km)
Ceiling: ceiling and visibility are OK
Clouds: unknown
Weather: no significant weather observed at this time

Forecast for: DRRN (NIAMEY (CIV/MIL), NE)
Text: TAF DRRN 181100Z 1812/1918 22008KT 8000 FEW030
Forecast period: 1200 to 2300 UTC 18 June 2019
Forecast type: FROM: standard forecast or significant change
Winds: from the SW (220 degrees) at 9 MPH (8 knots; 4.1 m/s)
Visibility: 5 miles (8 km)
Ceiling: at least 12,000 feet AGL
Clouds: few clouds at 3000 feet AGL
Weather: no significant weather forecast for this period
Text: TEMPO 1814/1817 08030KT 2000 BLDU TS SCT026 FEW035CB
Forecast period: 1400 to 1700 UTC 18 June 2019
Forecast type: TEMPORARY: The following changes expected for less than half the time period
Winds: from the E (80 degrees) at 34 MPH (30 knots; 15.4 m/s)
Visibility: 1.24 miles (2.00 km)
Ceiling: at least 12,000 feet AGL
Clouds: scattered clouds at 2600 feet AGL
few clouds at 3500 feet AGL
Weather: BLDU TS  (blowing dust, thunderstorm)
Text: TEMPO 1822/1824 10020G40KT 0200 SQ DS
Forecast period: 2200 UTC 18 June 2019 to 0000 UTC 19 June 2019
Forecast type: TEMPORARY: The following changes expected for less than half the time period
Winds: from the E (100 degrees) at 23 MPH (20 knots; 10.3 m/s)
gusting to 46 MPH (40 knots; 20.6 m/s)
Visibility: 0.12 miles (0.19 km)
Ceiling: unknown
Clouds: missing
Weather: SQ DS  (squal, duststorm)
Text: BECMG 1823/1901 2500 TSRA SCT020 FEW033CB
Forecast period: 2300 UTC 18 June 2019 to 0200 UTC 19 June 2019
Forecast type: BECOMING: Conditions expected to become as follows by 0100 UTC 19 June 2019
Winds: from the SW (220 degrees) at 9 MPH (8 knots; 4.1 m/s)
Visibility: 1.55 miles (2.49 km)
Ceiling: at least 12,000 feet AGL
Clouds: scattered clouds at 2000 feet AGL
few clouds at 3300 feet AGL
Weather: TSRA  (rain associated with thunderstorm(s))
Text: BECMG 1902/1904 9999 FEW035
Forecast period: 0200 to 1800 UTC 19 June 2019
Forecast type: BECOMING: Conditions expected to become as follows by 0400 UTC 19 June 2019
Winds: from the SW (220 degrees) at 9 MPH (8 knots; 4.1 m/s)
Visibility: 6 or more miles 10+ km)
Ceiling: at least 12,000 feet AGL
Clouds: few clouds at 3500 feet AGL
Weather: TSRA  (rain associated with thunderstorm(s))